Time;durP1;ratioP1;P1;durP2;ratioP2;P2;SDS_P1;SDS_P2;PMS_P1;PMS_P2;Temp;Humidity;BMP_temperature;BMP_pressure;BME280_temperature;BME280_humidity;BME280_pressure;Samples;Min_cycle;Max_cycle;Signal;HPM_P1;HPM_P2
2023/09/01 00:00:41;;;;;;;7.93;5.80;;;;;;;17.11;100.00;100309.84;4941341;28;20211;-71
2023/09/01 00:03:09;;;;;;;7.27;6.07;;;;;;;17.11;100.00;100305.31;4940573;28;20215;-69
2023/09/01 00:05:38;;;;;;;9.70;6.87;;;;;;;17.17;100.00;100304.53;4941178;28;20234;-68
2023/09/01 00:08:06;;;;;;;10.07;6.90;;;;;;;17.10;100.00;100300.97;4941477;28;20212;-69
2023/09/01 00:10:39;;;;;;;9.77;6.60;;;;;;;17.10;100.00;100302.84;4938643;28;20236;-70
2023/09/01 00:13:06;;;;;;;10.00;6.20;;;;;;;17.15;100.00;100301.22;4943457;28;20227;-68
2023/09/01 00:15:34;;;;;;;9.67;6.47;;;;;;;17.14;100.00;100309.47;4942592;28;20218;-70
2023/09/01 00:18:03;;;;;;;8.70;5.93;;;;;;;17.12;100.00;100298.13;4939628;28;20382;-68
2023/09/01 00:20:34;;;;;;;10.30;6.57;;;;;;;17.18;100.00;100300.00;4941385;28;20698;-70
2023/09/01 00:23:04;;;;;;;10.23;6.60;;;;;;;17.15;100.00;100300.41;4941446;28;20210;-68
2023/09/01 00:25:32;;;;;;;8.23;6.20;;;;;;;17.14;100.00;100299.59;4939749;28;20334;-70
2023/09/01 00:28:00;;;;;;;8.57;6.27;;;;;;;17.09;100.00;100296.66;4940082;28;20244;-70
2023/09/01 00:30:29;;;;;;;8.07;6.30;;;;;;;17.11;100.00;100299.13;4941535;28;20251;-70
2023/09/01 00:32:56;;;;;;;10.13;6.93;;;;;;;17.10;100.00;100300.16;4940308;28;20212;-71
2023/09/01 00:35:24;;;;;;;9.83;7.13;;;;;;;17.12;100.00;100300.78;4938324;28;20212;-70
2023/09/01 00:37:52;;;;;;;9.00;6.07;;;;;;;17.05;100.00;100299.91;4939218;28;20203;-69
2023/09/01 00:40:21;;;;;;;11.10;7.17;;;;;;;17.05;100.00;100299.91;4939212;28;20215;-68
2023/09/01 00:42:49;;;;;;;9.97;7.40;;;;;;;17.04;100.00;100293.72;4941065;28;20220;-70
2023/09/01 00:45:17;;;;;;;9.27;6.80;;;;;;;17.09;100.00;100290.47;4939095;28;20247;-70
2023/09/01 00:47:45;;;;;;;11.23;6.70;;;;;;;17.06;100.00;100288.19;4940017;28;20773;-69
2023/09/01 00:50:13;;;;;;;9.97;7.10;;;;;;;17.09;100.00;100293.13;4939800;28;20215;-69
2023/09/01 00:52:41;;;;;;;10.07;7.10;;;;;;;17.04;100.00;100299.09;4941375;28;20255;-68
2023/09/01 00:55:09;;;;;;;10.10;7.00;;;;;;;17.16;100.00;100294.00;4940353;28;20212;-68
2023/09/01 00:57:38;;;;;;;8.50;6.30;;;;;;;17.12;100.00;100295.44;4940265;28;20310;-72
2023/09/01 01:00:07;;;;;;;9.93;6.13;;;;;;;17.08;100.00;100299.50;4941314;28;20207;-70
2023/09/01 01:02:34;;;;;;;9.53;6.83;;;;;;;17.13;100.00;100297.94;4941049;28;20294;-68
2023/09/01 01:05:13;;;;;;;8.27;6.10;;;;;;;17.12;100.00;100296.25;4942948;28;20318;-70
2023/09/01 01:07:48;;;;;;;7.87;5.70;;;;;;;17.20;100.00;100293.44;4941881;28;20219;-70
2023/09/01 01:10:20;;;;;;;6.47;5.07;;;;;;;17.20;100.00;100276.53;4940062;28;20299;-69
2023/09/01 01:12:53;;;;;;;6.47;5.00;;;;;;;17.13;100.00;100281.03;4938824;28;20215;-68
2023/09/01 01:15:22;;;;;;;6.60;4.47;;;;;;;17.09;100.00;100279.75;4936475;28;21038;-68
2023/09/01 01:17:52;;;;;;;5.67;3.93;;;;;;;17.01;100.00;100272.69;4937184;28;20247;-69
2023/09/01 01:20:29;;;;;;;4.83;3.47;;;;;;;17.05;100.00;100273.13;4937435;28;20210;-68
2023/09/01 01:23:09;;;;;;;5.17;3.60;;;;;;;16.98;100.00;100266.88;4937236;28;20207;-70
2023/09/01 01:25:38;;;;;;;5.10;3.60;;;;;;;16.92;100.00;100263.97;4938183;28;20225;-68
2023/09/01 01:28:09;;;;;;;6.57;3.97;;;;;;;16.93;100.00;100262.94;4939808;28;20298;-70
2023/09/01 01:30:38;;;;;;;7.27;4.30;;;;;;;16.98;100.00;100266.88;4936992;28;20298;-69
2023/09/01 01:33:15;;;;;;;8.53;4.60;;;;;;;16.96;100.00;100269.78;4937998;28;20212;-68
2023/09/01 01:35:52;;;;;;;7.57;4.53;;;;;;;16.92;100.00;100258.59;4937954;28;20733;-69
2023/09/01 01:38:24;;;;;;;7.60;5.37;;;;;;;16.90;100.00;100266.00;4938630;28;20222;-70
2023/09/01 01:40:55;;;;;;;6.97;4.97;;;;;;;16.89;100.00;100264.34;4939963;28;20196;-69
2023/09/01 01:43:26;;;;;;;8.07;5.07;;;;;;;16.90;100.00;100265.16;4939456;28;20705;-68
2023/09/01 01:45:56;;;;;;;11.13;5.17;;;;;;;16.85;100.00;100270.28;4936983;28;20358;-68
2023/09/01 01:48:24;;;;;;;7.33;4.50;;;;;;;16.83;100.00;100272.31;4937888;28;20208;-67
2023/09/01 01:50:55;;;;;;;7.73;4.67;;;;;;;16.79;100.00;100263.88;4938600;28;20210;-68
2023/09/01 01:53:24;;;;;;;7.00;4.77;;;;;;;16.81;100.00;100261.81;4940056;28;20303;-69
2023/09/01 01:55:51;;;;;;;8.00;4.10;;;;;;;16.85;100.00;100252.38;4938902;28;20230;-67
2023/09/01 01:58:19;;;;;;;6.33;4.40;;;;;;;16.83;100.00;100256.25;4936812;28;20797;-69
2023/09/01 02:00:47;;;;;;;7.87;4.73;;;;;;;16.78;100.00;100248.81;4940585;28;20302;-70
2023/09/01 02:03:15;;;;;;;6.17;3.60;;;;;;;16.80;100.00;100254.78;4939812;28;20214;-67
2023/09/01 02:05:42;;;;;;;7.53;4.37;;;;;;;16.87;100.00;100261.06;4940752;28;20322;-68
2023/09/01 02:08:10;;;;;;;7.67;4.73;;;;;;;16.89;100.00;100250.94;4939590;28;21066;-67
2023/09/01 02:10:40;;;;;;;8.53;4.57;;;;;;;16.95;100.00;100257.41;4940668;28;20211;-70
2023/09/01 02:13:07;;;;;;;5.53;3.73;;;;;;;16.93;100.00;100249.53;4939730;28;20586;-69
2023/09/01 02:15:35;;;;;;;5.77;3.87;;;;;;;16.97;100.00;100255.34;4937753;28;20219;-68
2023/09/01 02:18:04;;;;;;;7.00;4.10;;;;;;;16.96;100.00;100252.88;4938773;28;20211;-68
2023/09/01 02:20:36;;;;;;;8.63;5.70;;;;;;;17.03;100.00;100262.59;4938931;28;20906;-67
2023/09/01 02:23:04;;;;;;;8.90;4.70;;;;;;;17.07;100.00;100263.03;4939708;28;20211;-68
2023/09/01 02:25:36;;;;;;;6.87;4.30;;;;;;;17.08;100.00;100264.69;4938804;28;20262;-68
2023/09/01 02:28:06;;;;;;;6.63;4.77;;;;;;;17.12;100.00;100263.28;4940885;28;20302;-69
2023/09/01 02:30:34;;;;;;;7.50;5.00;;;;;;;17.07;100.00;100250.47;4939948;28;20274;-69
2023/09/01 02:33:02;;;;;;;7.70;4.80;;;;;;;17.12;100.00;100257.94;4939404;28;20956;-69
2023/09/01 02:35:30;;;;;;;9.27;4.20;;;;;;;17.11;100.00;100250.91;4940469;28;20225;-69
2023/09/01 02:37:58;;;;;;;9.53;5.43;;;;;;;17.13;100.00;100259.59;4939824;28;20212;-68
2023/09/01 02:40:26;;;;;;;8.13;4.83;;;;;;;17.10;100.00;100254.59;4936455;28;20310;-70
2023/09/01 02:42:54;;;;;;;8.67;5.20;;;;;;;17.06;100.00;100253.38;4935622;28;20227;-67
2023/09/01 02:45:23;;;;;;;8.40;5.07;;;;;;;17.09;100.00;100252.94;4940396;28;20754;-67
2023/09/01 02:47:51;;;;;;;7.87;5.30;;;;;;;17.13;100.00;100257.72;4938232;28;20215;-67
2023/09/01 02:50:19;;;;;;;8.70;6.33;;;;;;;17.16;100.00;100257.31;4941316;28;20294;-67
2023/09/01 02:52:46;;;;;;;8.50;6.50;;;;;;;17.23;100.00;100255.53;4939398;28;20302;-68
2023/09/01 02:55:17;;;;;;;12.70;7.00;;;;;;;17.21;100.00;100248.72;4941726;28;20216;-68
2023/09/01 02:57:46;;;;;;;9.93;6.57;;;;;;;17.15;100.00;100257.53;4938754;28;20213;-70
2023/09/01 03:00:18;;;;;;;9.87;7.27;;;;;;;17.15;100.00;100253.00;4940367;28;20208;-70
2023/09/01 03:02:47;;;;;;;11.37;7.30;;;;;;;17.13;100.00;100251.53;4940237;28;20222;-69
2023/09/01 03:05:15;;;;;;;10.50;7.17;;;;;;;17.14;100.00;100262.06;4938860;28;20659;-69
2023/09/01 03:07:43;;;;;;;11.53;8.30;;;;;;;17.18;100.00;100257.97;4936341;28;20816;-70
2023/09/01 03:10:11;;;;;;;10.77;8.10;;;;;;;17.14;100.00;100259.41;4939509;28;20222;-69
2023/09/01 03:12:39;;;;;;;12.13;7.67;;;;;;;17.16;100.00;100253.81;4939969;28;20212;-69
2023/09/01 03:15:09;;;;;;;11.30;7.33;;;;;;;17.14;100.00;100258.56;4940644;28;20307;-68
2023/09/01 03:17:37;;;;;;;12.57;8.20;;;;;;;17.16;100.00;100259.19;4939883;28;20216;-68
2023/09/01 03:20:10;;;;;;;12.47;9.10;;;;;;;17.21;100.00;100260.25;4937792;28;20721;-70
2023/09/01 03:22:38;;;;;;;11.57;8.73;;;;;;;17.19;100.00;100254.25;4937882;28;20287;-68
2023/09/01 03:25:09;;;;;;;12.70;8.97;;;;;;;17.21;100.00;100254.91;4938668;28;20610;-70
2023/09/01 03:27:37;;;;;;;13.90;8.83;;;;;;;17.11;100.00;100259.78;4939232;28;20235;-69
2023/09/01 03:30:06;;;;;;;13.30;8.83;;;;;;;17.08;100.00;100254.78;4936982;28;20754;-70
2023/09/01 03:32:34;;;;;;;15.00;9.57;;;;;;;17.10;100.00;100251.94;4937868;28;20407;-70
2023/09/01 03:35:02;;;;;;;14.87;10.53;;;;;;;17.10;100.00;100254.59;4939954;28;20218;-69
2023/09/01 03:37:31;;;;;;;13.47;9.70;;;;;;;17.06;100.00;100261.41;4937826;28;20678;-67
2023/09/01 03:39:59;;;;;;;15.97;9.67;;;;;;;17.03;100.00;100249.22;4939082;28;20685;-68
2023/09/01 03:42:27;;;;;;;12.93;9.83;;;;;;;17.06;100.00;100250.69;4942606;28;20315;-70
2023/09/01 03:44:54;;;;;;;14.10;9.73;;;;;;;17.02;100.00;100246.72;4938299;28;20218;-68
2023/09/01 03:47:22;;;;;;;14.20;10.77;;;;;;;17.03;100.00;100243.84;4938292;28;20256;-67
2023/09/01 03:49:50;;;;;;;14.30;10.30;;;;;;;17.02;100.00;100246.72;4936453;28;20264;-67
2023/09/01 03:52:17;;;;;;;18.80;12.27;;;;;;;17.05;100.00;100251.69;4939802;28;20270;-68
2023/09/01 03:54:46;;;;;;;14.90;11.10;;;;;;;17.08;100.00;100251.28;4935197;28;20287;-67
2023/09/01 03:57:15;;;;;;;16.50;10.93;;;;;;;17.15;100.00;100252.19;4937543;28;21236;-69
2023/09/01 03:59:43;;;;;;;16.73;11.73;;;;;;;17.15;100.00;100252.19;4935710;28;20208;-70
2023/09/01 04:02:11;;;;;;;15.20;10.70;;;;;;;17.12;100.00;100247.22;4938301;28;20262;-68
2023/09/01 04:04:39;;;;;;;15.20;11.70;;;;;;;17.15;100.00;100246.84;4936190;28;20300;-67
2023/09/01 04:07:08;;;;;;;18.23;10.60;;;;;;;17.09;100.00;100247.59;4935819;28;20232;-69
2023/09/01 04:09:35;;;;;;;19.37;11.70;;;;;;;17.13;100.00;100246.19;4935764;28;20920;-70
2023/09/01 04:12:05;;;;;;;20.80;11.93;;;;;;;17.12;100.00;100248.03;4938170;28;20211;-67
2023/09/01 04:14:33;;;;;;;17.87;11.40;;;;;;;17.15;100.00;100252.19;4936780;28;20208;-67
2023/09/01 04:17:01;;;;;;;15.90;10.77;;;;;;;17.12;100.00;100257.94;4936388;28;20346;-69
2023/09/01 04:19:28;;;;;;;18.53;12.27;;;;;;;17.18;100.00;100257.97;4938069;28;20251;-70
2023/09/01 04:21:56;;;;;;;16.53;12.30;;;;;;;17.23;100.00;100254.72;4937097;28;20319;-68
2023/09/01 04:24:24;;;;;;;17.70;11.47;;;;;;;17.25;100.00;100258.00;4934846;28;20581;-69
2023/09/01 04:26:52;;;;;;;17.87;11.47;;;;;;;17.25;100.00;100263.34;4933356;28;20287;-67
2023/09/01 04:29:21;;;;;;;17.30;11.57;;;;;;;17.28;100.00;100252.25;4936453;28;20247;-69
2023/09/01 04:31:49;;;;;;;16.57;11.03;;;;;;;17.28;100.00;100254.94;4936853;28;20557;-68
2023/09/01 04:34:18;;;;;;;15.40;11.07;;;;;;;17.26;100.00;100251.63;4937812;28;20728;-70
2023/09/01 04:36:46;;;;;;;18.63;10.93;;;;;;;17.29;100.00;100256.59;4936737;28;20204;-68
2023/09/01 04:39:15;;;;;;;16.60;11.00;;;;;;;17.28;100.00;100252.25;4937617;28;20234;-70
2023/09/01 04:41:43;;;;;;;15.67;11.20;;;;;;;17.29;100.00;100259.28;4942294;28;20234;-69
2023/09/01 04:44:11;;;;;;;15.90;11.03;;;;;;;17.33;100.00;100259.72;4940464;28;20274;-70
2023/09/01 04:46:40;;;;;;;20.20;10.77;;;;;;;17.40;100.00;100260.59;4941243;28;20208;-69
2023/09/01 04:49:07;;;;;;;14.43;10.13;;;;;;;17.39;100.00;100256.25;4939627;28;20693;-70
2023/09/01 04:51:35;;;;;;;19.80;11.40;;;;;;;17.39;100.00;100262.44;4940850;28;20216;-69
2023/09/01 04:54:03;;;;;;;13.40;9.53;;;;;;;17.39;100.00;100257.06;4939887;28;20222;-69
2023/09/01 04:56:32;;;;;;;13.50;9.07;;;;;;;17.41;100.00;100272.97;4939808;28;20260;-70
2023/09/01 04:59:00;;;;;;;16.27;10.30;;;;;;;17.46;100.00;100270.50;4939531;28;20208;-67
2023/09/01 05:01:28;;;;;;;14.07;9.03;;;;;;;17.52;100.00;100275.06;4941171;28;20327;-69
2023/09/01 05:03:57;;;;;;;13.33;8.23;;;;;;;17.50;100.00;100274.47;4940202;28;20725;-69
2023/09/01 05:06:25;;;;;;;17.63;8.63;;;;;;;17.50;100.00;100269.09;4939571;28;20279;-68
2023/09/01 05:08:52;;;;;;;13.07;8.13;;;;;;;17.54;100.00;100265.81;4938635;28;20231;-68
2023/09/01 05:11:20;;;;;;;11.90;7.60;;;;;;;17.52;100.00;100259.81;4938888;28;20226;-69
2023/09/01 05:13:48;;;;;;;19.33;9.40;;;;;;;17.56;100.00;100271.81;4940192;28;20267;-70
2023/09/01 05:16:15;;;;;;;14.53;8.77;;;;;;;17.59;100.00;100271.41;4937002;28;20208;-68
2023/09/01 05:18:43;;;;;;;17.00;8.77;;;;;;;17.64;100.00;100268.16;4938126;28;20592;-68
2023/09/01 05:21:12;;;;;;;12.97;8.47;;;;;;;17.71;100.00;100273.56;4941291;28;20664;-69
2023/09/01 05:23:40;;;;;;;11.53;7.33;;;;;;;17.72;100.00;100269.84;4938772;28;20791;-69
2023/09/01 05:26:07;;;;;;;18.97;7.33;;;;;;;17.78;100.00;100275.25;4938293;28;20202;-69
2023/09/01 05:28:35;;;;;;;14.00;7.50;;;;;;;17.81;100.00;100285.56;4940433;28;20600;-67
2023/09/01 05:31:03;;;;;;;11.20;6.23;;;;;;;17.87;100.00;100281.25;4936665;28;20738;-68
2023/09/01 05:33:31;;;;;;;11.13;6.87;;;;;;;17.92;100.00;100286.88;4938802;28;20261;-69
2023/09/01 05:35:59;;;;;;;14.97;5.97;;;;;;;17.95;100.00;100283.75;4939826;28;21150;-68
2023/09/01 05:38:28;;;;;;;9.67;5.83;;;;;;;17.95;100.00;100283.75;4938846;28;20259;-69
2023/09/01 05:40:56;;;;;;;11.73;6.50;;;;;;;17.98;100.00;100286.06;4937169;28;20435;-68
2023/09/01 05:43:25;;;;;;;13.60;8.33;;;;;;;17.95;100.00;100287.28;4939238;28;20234;-68
2023/09/01 05:45:52;;;;;;;15.80;10.43;;;;;;;18.02;100.00;100287.31;4940064;28;20347;-68
2023/09/01 05:48:24;;;;;;;12.63;7.03;;;;;;;18.03;100.00;100279.06;4936388;28;20215;-69
2023/09/01 05:50:52;;;;;;;9.60;6.20;;;;;;;18.02;100.00;100290.00;4937651;28;20203;-68
2023/09/01 05:53:19;;;;;;;12.07;5.97;;;;;;;17.99;100.00;100296.59;4939140;28;20207;-70
2023/09/01 05:55:48;;;;;;;9.40;5.83;;;;;;;18.00;100.00;100294.75;4937772;28;20312;-69
2023/09/01 05:58:16;;;;;;;11.00;6.07;;;;;;;18.01;100.00;100291.88;4939359;28;20218;-67
2023/09/01 06:00:44;;;;;;;7.37;4.97;;;;;;;18.03;100.00;100287.09;4937462;28;20212;-68
2023/09/01 06:03:15;;;;;;;8.30;5.30;;;;;;;18.03;100.00;100289.78;4940403;28;20302;-70
2023/09/01 06:05:42;;;;;;;10.73;4.87;;;;;;;18.07;100.00;100290.22;4936330;28;20214;-69
2023/09/01 06:08:18;;;;;;;5.60;4.50;;;;;;;18.10;100.00;100294.38;4965411;23;20286;-73
2023/09/01 06:22:21;;;;;;;;;;;;;;;;;;;;;
2023/09/01 06:25:00;;;;;;;11.07;6.00;;;;;;;18.35;100.00;100303.53;4956320;29;20645;-73
2023/09/01 06:34:16;;;;;;;;;;;;;;;;;;;;;
2023/09/01 06:40:54;;;;;;;10.43;5.03;;;;;;;18.21;100.00;100313.38;4895520;29;20217;-68
2023/09/01 06:43:23;;;;;;;9.37;5.47;;;;;;;18.19;100.00;100315.47;4896177;28;20236;-69
2023/09/01 06:45:53;;;;;;;11.83;5.60;;;;;;;18.19;100.00;100312.78;4939952;28;20211;-69
2023/09/01 06:48:21;;;;;;;10.17;5.57;;;;;;;18.25;100.00;100308.44;4937327;28;20238;-70
2023/09/01 06:50:49;;;;;;;7.57;5.10;;;;;;;18.29;100.00;100315.91;4937730;28;20243;-69
2023/09/01 06:53:17;;;;;;;10.33;5.23;;;;;;;18.29;100.00;100312.41;4939396;28;20231;-67
2023/09/01 06:55:46;;;;;;;9.53;5.13;;;;;;;18.33;100.00;100316.31;4937053;28;20301;-71
2023/09/01 06:58:14;;;;;;;12.53;5.33;;;;;;;18.41;100.00;100316.13;4935281;29;20805;-69
2023/09/01 07:00:43;;;;;;;10.80;4.63;;;;;;;18.43;100.00;100319.44;4936876;28;20214;-70
2023/09/01 07:03:11;;;;;;;8.70;4.23;;;;;;;18.48;100.00;100318.81;4937224;28;20295;-70
2023/09/01 07:05:39;;;;;;;8.00;3.80;;;;;;;18.59;100.00;100323.63;4937727;28;20200;-70
2023/09/01 07:08:12;;;;;;;10.73;4.20;;;;;;;18.65;100.00;100320.13;4935836;28;20326;-68
2023/09/01 07:10:40;;;;;;;7.77;4.03;;;;;;;18.71;100.00;100319.31;4935958;28;20872;-68
2023/09/01 07:13:10;;;;;;;7.23;3.60;;;;;;;18.70;100.00;100306.94;4935172;28;20215;-72
2023/09/01 07:15:38;;;;;;;9.80;3.83;;;;;;;18.69;100.00;100310.63;4933549;28;20315;-71
2023/09/01 07:18:07;;;;;;;7.73;3.27;;;;;;;18.73;100.00;100307.31;4934644;28;20211;-70
2023/09/01 07:20:35;;;;;;;10.40;3.57;;;;;;;18.82;100.00;100304.47;4935362;28;20214;-70
2023/09/01 07:23:03;;;;;;;8.17;3.70;;;;;;;18.84;100.00;100310.44;4928994;28;20207;-69
2023/09/01 07:25:31;;;;;;;7.27;3.57;;;;;;;18.90;100.00;100312.31;4932883;28;20211;-73
2023/09/01 07:27:59;;;;;;;5.87;3.40;;;;;;;18.92;100.00;100313.75;4932940;28;20302;-68
2023/09/01 07:30:26;;;;;;;6.83;3.43;;;;;;;18.98;100.00;100314.81;4934036;28;20219;-75
2023/09/01 07:32:54;;;;;;;11.90;3.53;;;;;;;18.95;100.00;100324.09;4933635;28;20221;-74
2023/09/01 07:35:23;;;;;;;10.33;2.97;;;;;;;19.09;100.00;100327.59;4933291;28;20600;-73
2023/09/01 07:37:51;;;;;;;8.30;3.30;;;;;;;19.06;100.00;100323.50;4932821;28;20294;-71
2023/09/01 07:40:19;;;;;;;5.77;2.90;;;;;;;19.16;100.00;100328.44;4935151;28;20805;-73
2023/09/01 07:42:47;;;;;;;9.07;3.00;;;;;;;19.14;100.00;100328.66;4935171;28;20318;-74
2023/09/01 07:45:15;;;;;;;3.60;2.30;;;;;;;19.20;100.00;100328.84;4937962;28;20212;-72
2023/09/01 07:47:44;;;;;;;5.07;2.83;;;;;;;19.28;100.00;100334.84;4935373;28;20774;-74
2023/09/01 07:50:12;;;;;;;5.73;2.27;;;;;;;19.29;100.00;100338.34;4936279;28;20242;-75
2023/09/01 07:52:41;;;;;;;6.63;2.50;;;;;;;19.37;100.00;100340.81;4939091;28;20207;-73
2023/09/01 07:55:09;;;;;;;4.93;2.20;;;;;;;19.42;100.00;100336.50;4938020;28;20203;-72
2023/09/01 07:57:37;;;;;;;7.23;2.23;;;;;;;19.47;100.00;100341.22;4935304;28;20223;-73
2023/09/01 08:00:07;;;;;;;4.23;2.27;;;;;;;19.53;100.00;100337.72;4936040;28;20208;-71
2023/09/01 08:02:35;;;;;;;7.67;2.67;;;;;;;19.64;100.00;100347.03;4934383;28;20347;-70
2023/09/01 08:05:03;;;;;;;5.27;2.07;;;;;;;19.73;100.00;100343.91;4936912;28;20211;-73
2023/09/01 08:07:31;;;;;;;8.07;2.37;;;;;;;19.70;100.00;100357.78;4934951;28;20642;-69
2023/09/01 08:10:09;;;;;;;4.70;2.13;;;;;;;19.71;100.00;100347.84;4937305;28;20235;-73
2023/09/01 08:12:37;;;;;;;5.13;2.50;;;;;;;19.67;100.00;100338.56;4932368;28;20293;-74
2023/09/01 08:15:08;;;;;;;5.20;2.70;;;;;;;19.71;100.00;100337.91;4939114;28;20295;-72
2023/09/01 08:17:36;;;;;;;5.93;2.30;;;;;;;19.70;100.00;100338.13;4938290;28;20234;-73
2023/09/01 08:20:05;;;;;;;4.77;2.23;;;;;;;19.74;100.00;100350.94;4937711;28;20216;-76
2023/09/01 08:22:32;;;;;;;5.20;2.20;;;;;;;19.70;100.00;100348.91;4937048;28;20295;-71
2023/09/01 08:25:01;;;;;;;5.80;2.40;;;;;;;19.67;100.00;100352.81;4940342;28;20330;-70
2023/09/01 08:27:29;;;;;;;6.40;2.10;;;;;;;19.68;100.00;100359.88;4935947;28;20323;-73
2023/09/01 08:29:57;;;;;;;6.60;2.67;;;;;;;19.71;100.00;100366.66;4936940;28;20226;-70
2023/09/01 08:32:25;;;;;;;5.20;2.60;;;;;;;19.72;100.00;100360.25;4936655;28;20299;-75
2023/09/01 08:34:53;;;;;;;5.73;3.10;;;;;;;19.74;100.00;100364.41;4937843;28;20299;-72
2023/09/01 08:37:20;;;;;;;5.80;2.83;;;;;;;19.70;100.00;100368.53;4936840;28;20204;-74
2023/09/01 08:39:48;;;;;;;6.17;2.50;;;;;;;19.71;100.00;100370.19;4937025;28;20214;-73
2023/09/01 08:42:21;;;;;;;5.83;2.77;;;;;;;19.68;100.00;100370.63;4939477;28;20239;-73
2023/09/01 08:44:50;;;;;;;5.00;2.43;;;;;;;19.73;100.00;100375.38;4935968;28;20204;-73
2023/09/01 08:47:20;;;;;;;5.17;2.73;;;;;;;19.71;100.00;100372.88;4938498;28;20298;-72
2023/09/01 08:49:49;;;;;;;9.53;2.77;;;;;;;19.70;100.00;100373.13;4939817;28;20227;-67
2023/09/01 08:52:19;;;;;;;7.37;2.70;;;;;;;19.61;100.00;100374.38;4937196;28;20316;-72
2023/09/01 08:54:47;;;;;;;8.63;2.67;;;;;;;19.63;100.00;100367.72;4938954;28;20216;-72
2023/09/01 08:57:17;;;;;;;7.77;2.50;;;;;;;19.64;100.00;100374.75;4937571;28;20208;-70
2023/09/01 08:59:45;;;;;;;5.33;2.47;;;;;;;19.63;100.00;100370.41;4937554;28;20639;-71
2023/09/01 09:02:12;;;;;;;6.50;2.37;;;;;;;19.67;100.00;100368.97;4937048;28;20218;-71
2023/09/01 09:04:40;;;;;;;6.23;3.13;;;;;;;19.70;100.00;100373.91;4938852;28;20223;-70
2023/09/01 09:07:15;;;;;;;5.87;2.17;;;;;;;19.67;100.00;100366.28;4938452;28;20223;-72
2023/09/01 09:09:53;;;;;;;6.07;2.93;;;;;;;19.76;100.00;100373.09;4938937;28;20234;-72
2023/09/01 09:12:23;;;;;;;3.70;2.33;;;;;;;19.81;100.00;100369.75;4936335;28;20208;-70
2023/09/01 09:14:53;;;;;;;4.13;2.60;;;;;;;19.79;100.00;100372.66;4938890;28;20239;-73
2023/09/01 09:17:40;;;;;;;6.07;3.23;;;;;;;19.81;100.00;100375.13;4938044;28;20226;-70
2023/09/01 09:20:09;;;;;;;7.17;3.00;;;;;;;19.85;100.00;100382.59;4938474;28;20318;-71
2023/09/01 09:22:50;;;;;;;10.10;3.30;;;;;;;19.89;100.00;100389.19;4937534;28;20232;-69
2023/09/01 09:25:41;;;;;;;9.10;3.80;;;;;;;19.91;100.00;100387.13;4939844;28;20219;-68
2023/09/01 09:28:16;;;;;;;5.97;2.57;;;;;;;19.94;100.00;100390.44;4936598;28;20234;-72
2023/09/01 09:30:51;;;;;;;5.93;2.40;;;;;;;19.90;100.00;100390.84;4939295;28;20283;-68
2023/09/01 09:33:27;;;;;;;5.90;2.87;;;;;;;19.83;100.00;100390.03;4937889;28;20783;-67
2023/09/01 09:35:54;;;;;;;5.83;2.67;;;;;;;19.87;100.00;100393.16;4937042;28;20212;-71
2023/09/01 09:38:22;;;;;;;3.60;2.00;;;;;;;19.92;100.00;100388.78;4936657;28;20214;-72
2023/09/01 09:40:57;;;;;;;6.13;2.60;;;;;;;19.89;100.00;100389.19;4938658;28;20235;-73
2023/09/01 09:43:27;;;;;;;7.57;2.20;;;;;;;19.90;100.00;100384.63;4940076;28;20310;-70
2023/09/01 09:45:55;;;;;;;5.73;2.70;;;;;;;19.95;100.00;100389.41;4937313;28;20215;-72
2023/09/01 09:48:24;;;;;;;6.90;2.80;;;;;;;19.97;100.00;100385.44;4938554;28;20208;-73
2023/09/01 09:50:52;;;;;;;4.60;2.50;;;;;;;20.00;100.00;100386.88;4937237;28;20222;-68
2023/09/01 09:53:23;;;;;;;8.73;3.03;;;;;;;20.08;100.00;100386.66;4940337;28;20645;-72
2023/09/01 09:55:51;;;;;;;7.23;2.93;;;;;;;20.23;100.00;100384.53;4936906;28;20204;-72
2023/09/01 09:58:23;;;;;;;4.83;2.43;;;;;;;20.33;100.00;100379.53;4937916;28;20210;-70
2023/09/01 10:00:56;;;;;;;6.77;2.57;;;;;;;20.32;100.00;100377.06;4938734;28;20345;-77
2023/09/01 10:03:30;;;;;;;7.57;3.20;;;;;;;20.37;100.00;100380.78;4940491;28;20215;-75
2023/09/01 10:05:59;;;;;;;5.80;2.27;;;;;;;20.41;100.00;100375.78;4945066;28;20275;-71
2023/09/01 10:08:28;;;;;;;7.13;4.43;;;;;;;20.36;100.00;100373.75;4948947;28;20297;-74
2023/09/01 10:10:58;;;;;;;7.40;3.13;;;;;;;20.23;100.00;100368.38;4949748;28;20239;-69
2023/09/01 10:13:26;;;;;;;8.57;3.40;;;;;;;20.25;100.00;100367.13;4944328;28;20979;-77
2023/09/01 10:15:56;;;;;;;8.50;3.07;;;;;;;20.30;100.00;100374.56;4937083;28;20215;-73
2023/09/01 10:18:25;;;;;;;6.00;2.90;;;;;;;20.27;100.00;100373.13;4936319;28;20208;-71
2023/09/01 10:20:53;;;;;;;6.63;2.90;;;;;;;20.26;100.00;100367.97;4935848;28;20300;-66
2023/09/01 10:23:21;;;;;;;4.67;2.90;;;;;;;20.23;100.00;100377.28;4937391;28;20211;-70
2023/09/01 10:26:12;;;;;;;8.40;3.20;;;;;;;20.30;100.00;100379.97;4937243;28;20216;-68
2023/09/01 10:28:54;;;;;;;11.13;3.03;;;;;;;20.22;100.00;100378.34;4933757;28;20299;-66
2023/09/01 10:31:23;;;;;;;6.27;3.30;;;;;;;20.22;100.00;100374.81;4938017;28;20224;-71
2023/09/01 10:34:09;;;;;;;4.83;2.40;;;;;;;20.25;100.00;100377.06;4939002;28;20218;-69
2023/09/01 10:36:42;;;;;;;10.53;2.80;;;;;;;20.11;100.00;100364.72;4938918;28;21171;-73
2023/09/01 10:39:30;;;;;;;4.60;2.70;;;;;;;19.97;100.00;100371.16;4935606;28;20238;-76
2023/09/01 10:41:59;;;;;;;6.83;2.97;;;;;;;19.94;100.00;100369.72;4936717;28;20237;-76
2023/09/01 10:45:11;;;;;;;10.03;3.30;;;;;;;19.86;100.00;100378.88;4938601;28;20226;-73
2023/09/01 10:47:46;;;;;;;5.67;3.47;;;;;;;19.75;100.00;100379.50;4871903;29;20222;-75
2023/09/01 10:50:16;;;;;;;7.47;3.10;;;;;;;19.71;100.00;100380.94;4882604;29;20234;-72
2023/09/01 10:52:48;;;;;;;7.13;3.13;;;;;;;19.71;100.00;100377.44;4917845;28;20216;-75
2023/09/01 10:55:17;;;;;;;6.40;3.23;;;;;;;19.72;100.00;100366.47;4942288;28;20219;-75
2023/09/01 10:57:53;;;;;;;8.00;3.73;;;;;;;19.87;100.00;100350.94;4939442;28;20662;-78
2023/09/01 11:00:32;;;;;;;5.27;3.50;;;;;;;20.11;100.00;100348.56;4941945;28;20215;-78
2023/09/01 11:03:30;;;;;;;10.57;3.70;;;;;;;20.33;100.00;100357.16;4949865;28;20254;-70
2023/09/01 11:05:59;;;;;;;5.87;3.67;;;;;;;20.35;100.00;100357.81;4963390;28;20207;-67
2023/09/01 11:08:28;;;;;;;6.67;4.00;;;;;;;20.50;100.00;100350.25;4960909;28;20211;-69
2023/09/01 11:11:00;;;;;;;14.00;4.23;;;;;;;20.58;100.00;100350.81;4947515;28;20235;-78
2023/09/01 11:13:28;;;;;;;7.73;4.23;;;;;;;20.51;100.00;100358.13;4942988;28;20199;-77
2023/09/01 11:15:56;;;;;;;6.87;3.60;;;;;;;20.59;100.00;100352.47;4953079;28;20216;-81
2023/09/01 11:18:25;;;;;;;5.33;3.17;;;;;;;20.57;100.00;100348.38;4945090;28;21122;-78
2023/09/01 11:20:57;;;;;;;5.37;3.03;;;;;;;20.61;100.00;100345.00;4950233;28;20225;-75
2023/09/01 11:23:31;;;;;;;6.40;3.07;;;;;;;20.71;100.00;100339.16;4945919;28;20211;-72
2023/09/01 11:26:00;;;;;;;7.57;3.03;;;;;;;20.81;100.00;100331.44;4964053;28;20214;-77
2023/09/01 11:28:30;;;;;;;4.33;2.60;;;;;;;20.88;100.00;100323.28;4959321;28;20206;-70
2023/09/01 11:31:02;;;;;;;10.00;2.60;;;;;;;21.00;100.00;100318.84;4957046;28;20238;-75
2023/09/01 11:33:33;;;;;;;4.53;2.10;;;;;;;21.15;100.00;100319.34;4958396;28;20212;-82
2023/09/01 11:36:09;;;;;;;4.30;2.00;;;;;;;21.19;100.00;100315.19;4946880;28;20203;-75
2023/09/01 11:38:38;;;;;;;3.27;1.60;;;;;;;21.20;100.00;100311.44;4947900;28;20207;-76
2023/09/01 11:41:10;;;;;;;2.37;1.40;;;;;;;21.27;100.00;100314.91;4942783;28;20302;-73
2023/09/01 11:43:39;;;;;;;4.03;1.90;;;;;;;21.06;100.00;100317.97;4944788;28;20208;-79
2023/09/01 11:46:17;;;;;;;3.30;1.73;;;;;;;21.06;100.00;100330.63;4938797;28;20413;-72
2023/09/01 11:48:48;;;;;;;5.23;1.70;;;;;;;20.93;100.00;100329.66;4939658;28;20214;-73
2023/09/01 11:51:17;;;;;;;3.57;1.90;;;;;;;20.83;100.00;100337.44;4942981;28;20235;-75